sensor_id;sensor_type;location;lat;lon;timestamp;P1;durP1;ratioP1;P2;durP2;ratioP2
12135;SDS011;6131;56.420;15.548;2023-04-24T00:00:56;19.63;;;5.10;;
12135;SDS011;6131;56.420;15.548;2023-04-24T00:03:22;10.00;;;3.90;;
12135;SDS011;6131;56.420;15.548;2023-04-24T00:05:49;10.03;;;3.97;;
12135;SDS011;6131;56.420;15.548;2023-04-24T00:08:15;17.60;;;4.13;;
12135;SDS011;6131;56.420;15.548;2023-04-24T00:10:41;9.27;;;3.77;;
12135;SDS011;6131;56.420;15.548;2023-04-24T00:13:07;11.07;;;4.20;;
12135;SDS011;6131;56.420;15.548;2023-04-24T00:15:33;10.83;;;3.77;;
12135;SDS011;6131;56.420;15.548;2023-04-24T00:18:00;5.03;;;3.70;;
12135;SDS011;6131;56.420;15.548;2023-04-24T00:20:28;5.97;;;3.73;;
12135;SDS011;6131;56.420;15.548;2023-04-24T00:22:55;7.70;;;3.83;;
12135;SDS011;6131;56.420;15.548;2023-04-24T00:25:21;11.07;;;3.97;;
12135;SDS011;6131;56.420;15.548;2023-04-24T00:27:47;6.40;;;4.13;;
12135;SDS011;6131;56.420;15.548;2023-04-24T00:30:13;5.27;;;3.63;;
12135;SDS011;6131;56.420;15.548;2023-04-24T00:32:39;8.63;;;3.60;;
12135;SDS011;6131;56.420;15.548;2023-04-24T00:35:05;4.83;;;3.60;;
12135;SDS011;6131;56.420;15.548;2023-04-24T00:37:32;4.67;;;3.80;;
12135;SDS011;6131;56.420;15.548;2023-04-24T00:39:58;8.17;;;3.70;;
12135;SDS011;6131;56.420;15.548;2023-04-24T00:42:24;11.27;;;3.63;;
12135;SDS011;6131;56.420;15.548;2023-04-24T00:44:50;11.53;;;4.90;;
12135;SDS011;6131;56.420;15.548;2023-04-24T00:47:16;16.53;;;6.07;;
12135;SDS011;6131;56.420;15.548;2023-04-24T00:49:43;9.50;;;3.70;;
12135;SDS011;6131;56.420;15.548;2023-04-24T00:52:09;13.80;;;4.87;;
12135;SDS011;6131;56.420;15.548;2023-04-24T00:54:35;25.33;;;4.93;;
12135;SDS011;6131;56.420;15.548;2023-04-24T00:57:04;19.10;;;4.43;;
12135;SDS011;6131;56.420;15.548;2023-04-24T00:59:30;13.73;;;4.27;;
12135;SDS011;6131;56.420;15.548;2023-04-24T01:01:57;13.07;;;4.43;;
12135;SDS011;6131;56.420;15.548;2023-04-24T01:04:23;23.97;;;5.43;;
12135;SDS011;6131;56.420;15.548;2023-04-24T01:06:51;8.30;;;4.23;;
12135;SDS011;6131;56.420;15.548;2023-04-24T01:09:17;10.43;;;4.30;;
12135;SDS011;6131;56.420;15.548;2023-04-24T01:11:43;7.73;;;3.73;;
12135;SDS011;6131;56.420;15.548;2023-04-24T01:14:09;8.00;;;3.90;;
12135;SDS011;6131;56.420;15.548;2023-04-24T01:16:35;3.93;;;3.53;;
12135;SDS011;6131;56.420;15.548;2023-04-24T01:19:03;14.10;;;3.87;;
12135;SDS011;6131;56.420;15.548;2023-04-24T01:21:29;9.80;;;3.40;;
12135;SDS011;6131;56.420;15.548;2023-04-24T01:23:56;9.37;;;3.50;;
12135;SDS011;6131;56.420;15.548;2023-04-24T01:26:22;11.73;;;3.67;;
12135;SDS011;6131;56.420;15.548;2023-04-24T01:28:50;4.83;;;3.50;;
12135;SDS011;6131;56.420;15.548;2023-04-24T01:31:17;7.57;;;3.57;;
12135;SDS011;6131;56.420;15.548;2023-04-24T01:33:43;19.67;;;4.17;;
12135;SDS011;6131;56.420;15.548;2023-04-24T01:36:10;9.67;;;3.73;;
12135;SDS011;6131;56.420;15.548;2023-04-24T01:38:37;13.13;;;3.73;;
12135;SDS011;6131;56.420;15.548;2023-04-24T01:41:03;12.57;;;3.70;;
12135;SDS011;6131;56.420;15.548;2023-04-24T01:43:29;12.33;;;3.60;;
12135;SDS011;6131;56.420;15.548;2023-04-24T01:45:55;13.93;;;3.97;;
12135;SDS011;6131;56.420;15.548;2023-04-24T01:48:21;7.60;;;3.40;;
12135;SDS011;6131;56.420;15.548;2023-04-24T01:50:47;11.20;;;3.83;;
12135;SDS011;6131;56.420;15.548;2023-04-24T01:53:13;12.37;;;3.63;;
12135;SDS011;6131;56.420;15.548;2023-04-24T01:55:40;8.77;;;3.63;;
12135;SDS011;6131;56.420;15.548;2023-04-24T01:58:06;14.70;;;3.83;;
12135;SDS011;6131;56.420;15.548;2023-04-24T02:00:32;15.17;;;3.80;;
12135;SDS011;6131;56.420;15.548;2023-04-24T02:02:58;16.03;;;4.47;;
12135;SDS011;6131;56.420;15.548;2023-04-24T02:05:26;17.33;;;4.17;;
12135;SDS011;6131;56.420;15.548;2023-04-24T02:07:52;15.33;;;4.87;;
12135;SDS011;6131;56.420;15.548;2023-04-24T02:10:18;14.43;;;4.67;;
12135;SDS011;6131;56.420;15.548;2023-04-24T02:12:44;18.07;;;4.70;;
12135;SDS011;6131;56.420;15.548;2023-04-24T02:15:11;15.10;;;4.10;;
12135;SDS011;6131;56.420;15.548;2023-04-24T02:17:37;17.23;;;4.37;;
12135;SDS011;6131;56.420;15.548;2023-04-24T02:20:04;15.87;;;4.30;;
12135;SDS011;6131;56.420;15.548;2023-04-24T02:22:30;17.80;;;4.60;;
12135;SDS011;6131;56.420;15.548;2023-04-24T02:24:56;20.03;;;4.80;;
12135;SDS011;6131;56.420;15.548;2023-04-24T02:27:22;9.77;;;4.23;;
12135;SDS011;6131;56.420;15.548;2023-04-24T02:29:56;10.80;;;4.20;;
12135;SDS011;6131;56.420;15.548;2023-04-24T02:32:22;20.73;;;4.80;;
12135;SDS011;6131;56.420;15.548;2023-04-24T02:34:48;19.73;;;4.40;;
12135;SDS011;6131;56.420;15.548;2023-04-24T02:37:14;18.87;;;5.07;;
12135;SDS011;6131;56.420;15.548;2023-04-24T02:39:39;26.73;;;5.60;;
12135;SDS011;6131;56.420;15.548;2023-04-24T02:42:06;16.13;;;4.67;;
12135;SDS011;6131;56.420;15.548;2023-04-24T02:44:33;26.07;;;5.63;;
12135;SDS011;6131;56.420;15.548;2023-04-24T02:46:59;21.67;;;5.40;;
12135;SDS011;6131;56.420;15.548;2023-04-24T02:49:25;11.83;;;4.80;;
12135;SDS011;6131;56.420;15.548;2023-04-24T02:51:52;17.53;;;5.00;;
12135;SDS011;6131;56.420;15.548;2023-04-24T02:54:18;11.00;;;4.97;;
12135;SDS011;6131;56.420;15.548;2023-04-24T02:56:44;7.80;;;4.40;;
12135;SDS011;6131;56.420;15.548;2023-04-24T02:59:10;10.23;;;4.23;;
12135;SDS011;6131;56.420;15.548;2023-04-24T03:01:35;10.60;;;5.03;;
12135;SDS011;6131;56.420;15.548;2023-04-24T03:04:02;13.67;;;5.17;;
12135;SDS011;6131;56.420;15.548;2023-04-24T03:06:28;9.43;;;4.90;;
12135;SDS011;6131;56.420;15.548;2023-04-24T03:08:56;18.17;;;5.00;;
12135;SDS011;6131;56.420;15.548;2023-04-24T03:11:22;15.47;;;5.00;;
12135;SDS011;6131;56.420;15.548;2023-04-24T03:13:48;11.63;;;4.90;;
12135;SDS011;6131;56.420;15.548;2023-04-24T03:16:14;13.93;;;4.87;;
12135;SDS011;6131;56.420;15.548;2023-04-24T03:18:40;63.17;;;6.83;;
12135;SDS011;6131;56.420;15.548;2023-04-24T03:21:06;31.10;;;5.37;;
12135;SDS011;6131;56.420;15.548;2023-04-24T03:23:32;31.73;;;6.20;;
12135;SDS011;6131;56.420;15.548;2023-04-24T03:25:58;54.97;;;6.50;;
12135;SDS011;6131;56.420;15.548;2023-04-24T03:28:24;26.83;;;5.90;;
12135;SDS011;6131;56.420;15.548;2023-04-24T03:30:50;45.87;;;6.67;;
12135;SDS011;6131;56.420;15.548;2023-04-24T03:33:17;61.43;;;7.93;;
12135;SDS011;6131;56.420;15.548;2023-04-24T03:35:43;89.83;;;9.23;;
12135;SDS011;6131;56.420;15.548;2023-04-24T03:38:09;44.50;;;6.53;;
12135;SDS011;6131;56.420;15.548;2023-04-24T03:40:35;33.03;;;6.60;;
12135;SDS011;6131;56.420;15.548;2023-04-24T03:43:01;25.67;;;6.57;;
12135;SDS011;6131;56.420;15.548;2023-04-24T03:45:27;23.73;;;5.90;;
12135;SDS011;6131;56.420;15.548;2023-04-24T03:47:53;32.10;;;6.13;;
12135;SDS011;6131;56.420;15.548;2023-04-24T03:50:20;83.50;;;8.47;;
12135;SDS011;6131;56.420;15.548;2023-04-24T03:52:46;48.53;;;8.40;;
12135;SDS011;6131;56.420;15.548;2023-04-24T03:55:12;17.37;;;5.80;;
12135;SDS011;6131;56.420;15.548;2023-04-24T03:57:39;45.83;;;6.83;;
12135;SDS011;6131;56.420;15.548;2023-04-24T04:00:06;63.10;;;7.20;;
12135;SDS011;6131;56.420;15.548;2023-04-24T04:02:32;52.40;;;7.63;;
12135;SDS011;6131;56.420;15.548;2023-04-24T04:04:58;47.67;;;6.97;;
12135;SDS011;6131;56.420;15.548;2023-04-24T04:07:24;42.80;;;6.53;;
12135;SDS011;6131;56.420;15.548;2023-04-24T04:09:50;41.63;;;6.90;;
12135;SDS011;6131;56.420;15.548;2023-04-24T04:12:16;35.13;;;6.07;;
12135;SDS011;6131;56.420;15.548;2023-04-24T04:14:42;22.20;;;6.10;;
12135;SDS011;6131;56.420;15.548;2023-04-24T04:17:08;22.67;;;5.03;;
12135;SDS011;6131;56.420;15.548;2023-04-24T04:19:34;43.63;;;6.87;;
12135;SDS011;6131;56.420;15.548;2023-04-24T04:22:01;26.67;;;6.10;;
12135;SDS011;6131;56.420;15.548;2023-04-24T04:24:27;38.53;;;6.10;;
12135;SDS011;6131;56.420;15.548;2023-04-24T04:26:53;27.97;;;5.40;;
12135;SDS011;6131;56.420;15.548;2023-04-24T04:29:21;15.67;;;5.07;;
12135;SDS011;6131;56.420;15.548;2023-04-24T04:31:47;32.63;;;6.10;;
12135;SDS011;6131;56.420;15.548;2023-04-24T04:34:13;57.20;;;6.83;;
12135;SDS011;6131;56.420;15.548;2023-04-24T04:36:40;27.50;;;5.63;;
12135;SDS011;6131;56.420;15.548;2023-04-24T04:39:06;15.97;;;6.13;;
12135;SDS011;6131;56.420;15.548;2023-04-24T04:41:32;22.37;;;5.67;;
12135;SDS011;6131;56.420;15.548;2023-04-24T04:44:00;24.70;;;5.60;;
12135;SDS011;6131;56.420;15.548;2023-04-24T04:46:26;27.33;;;6.13;;
12135;SDS011;6131;56.420;15.548;2023-04-24T04:48:52;26.63;;;5.50;;
12135;SDS011;6131;56.420;15.548;2023-04-24T04:51:19;15.80;;;4.97;;
12135;SDS011;6131;56.420;15.548;2023-04-24T04:53:45;16.33;;;4.80;;
12135;SDS011;6131;56.420;15.548;2023-04-24T04:56:11;21.77;;;5.53;;
12135;SDS011;6131;56.420;15.548;2023-04-24T04:58:37;15.50;;;5.17;;
12135;SDS011;6131;56.420;15.548;2023-04-24T05:01:03;12.33;;;4.47;;
12135;SDS011;6131;56.420;15.548;2023-04-24T05:03:29;11.60;;;4.80;;
12135;SDS011;6131;56.420;15.548;2023-04-24T05:05:55;12.83;;;4.73;;
12135;SDS011;6131;56.420;15.548;2023-04-24T05:08:23;13.93;;;4.60;;
12135;SDS011;6131;56.420;15.548;2023-04-24T05:10:49;17.80;;;4.83;;
12135;SDS011;6131;56.420;15.548;2023-04-24T05:13:15;12.33;;;5.80;;
12135;SDS011;6131;56.420;15.548;2023-04-24T05:15:41;23.43;;;5.30;;
12135;SDS011;6131;56.420;15.548;2023-04-24T05:18:07;16.13;;;4.80;;
12135;SDS011;6131;56.420;15.548;2023-04-24T05:20:33;9.30;;;5.20;;
12135;SDS011;6131;56.420;15.548;2023-04-24T05:22:59;7.87;;;4.87;;
12135;SDS011;6131;56.420;15.548;2023-04-24T05:25:25;13.60;;;5.20;;
12135;SDS011;6131;56.420;15.548;2023-04-24T05:27:51;8.83;;;4.90;;
12135;SDS011;6131;56.420;15.548;2023-04-24T05:30:18;14.00;;;4.70;;
12135;SDS011;6131;56.420;15.548;2023-04-24T05:32:44;8.57;;;4.87;;
12135;SDS011;6131;56.420;15.548;2023-04-24T05:35:11;12.77;;;5.20;;
12135;SDS011;6131;56.420;15.548;2023-04-24T05:37:37;10.67;;;5.67;;
12135;SDS011;6131;56.420;15.548;2023-04-24T05:40:03;7.67;;;5.20;;
12135;SDS011;6131;56.420;15.548;2023-04-24T05:42:30;9.00;;;5.33;;
12135;SDS011;6131;56.420;15.548;2023-04-24T05:44:57;11.67;;;5.43;;
12135;SDS011;6131;56.420;15.548;2023-04-24T05:47:23;10.27;;;5.07;;
12135;SDS011;6131;56.420;15.548;2023-04-24T05:49:49;6.50;;;5.80;;
12135;SDS011;6131;56.420;15.548;2023-04-24T05:52:14;9.10;;;6.30;;
12135;SDS011;6131;56.420;15.548;2023-04-24T05:54:40;7.00;;;5.90;;
12135;SDS011;6131;56.420;15.548;2023-04-24T05:57:06;6.23;;;5.63;;
12135;SDS011;6131;56.420;15.548;2023-04-24T05:59:33;7.00;;;6.23;;
12135;SDS011;6131;56.420;15.548;2023-04-24T06:01:59;7.03;;;6.33;;
12135;SDS011;6131;56.420;15.548;2023-04-24T06:04:25;7.03;;;6.00;;
12135;SDS011;6131;56.420;15.548;2023-04-24T06:06:51;7.80;;;6.37;;
12135;SDS011;6131;56.420;15.548;2023-04-24T06:09:21;7.27;;;6.53;;
12135;SDS011;6131;56.420;15.548;2023-04-24T06:11:47;7.10;;;6.30;;
12135;SDS011;6131;56.420;15.548;2023-04-24T06:14:13;7.60;;;6.33;;
12135;SDS011;6131;56.420;15.548;2023-04-24T06:16:40;6.83;;;6.13;;
12135;SDS011;6131;56.420;15.548;2023-04-24T06:19:06;7.03;;;6.33;;
12135;SDS011;6131;56.420;15.548;2023-04-24T06:21:32;7.33;;;6.40;;
12135;SDS011;6131;56.420;15.548;2023-04-24T06:23:58;9.03;;;6.90;;
12135;SDS011;6131;56.420;15.548;2023-04-24T06:26:24;7.03;;;6.33;;
12135;SDS011;6131;56.420;15.548;2023-04-24T06:28:51;8.37;;;7.20;;
12135;SDS011;6131;56.420;15.548;2023-04-24T06:31:18;7.47;;;6.37;;
12135;SDS011;6131;56.420;15.548;2023-04-24T06:33:44;9.47;;;7.63;;
12135;SDS011;6131;56.420;15.548;2023-04-24T06:36:11;8.60;;;7.07;;
12135;SDS011;6131;56.420;15.548;2023-04-24T06:38:37;9.37;;;7.47;;
12135;SDS011;6131;56.420;15.548;2023-04-24T06:41:03;9.73;;;7.87;;
12135;SDS011;6131;56.420;15.548;2023-04-24T06:43:30;9.07;;;8.07;;
12135;SDS011;6131;56.420;15.548;2023-04-24T06:45:57;8.53;;;7.63;;
12135;SDS011;6131;56.420;15.548;2023-04-24T06:48:23;9.47;;;8.00;;
12135;SDS011;6131;56.420;15.548;2023-04-24T06:50:50;8.83;;;7.93;;
12135;SDS011;6131;56.420;15.548;2023-04-24T06:53:16;10.47;;;8.20;;
12135;SDS011;6131;56.420;15.548;2023-04-24T06:55:42;9.63;;;8.10;;
12135;SDS011;6131;56.420;15.548;2023-04-24T06:58:09;10.97;;;9.33;;
12135;SDS011;6131;56.420;15.548;2023-04-24T07:00:36;9.80;;;8.63;;
12135;SDS011;6131;56.420;15.548;2023-04-24T07:03:02;11.10;;;9.40;;
12135;SDS011;6131;56.420;15.548;2023-04-24T07:05:30;12.60;;;8.77;;
12135;SDS011;6131;56.420;15.548;2023-04-24T07:07:56;9.53;;;8.37;;
12135;SDS011;6131;56.420;15.548;2023-04-24T07:10:25;10.17;;;8.97;;
12135;SDS011;6131;56.420;15.548;2023-04-24T07:12:53;10.40;;;9.30;;
12135;SDS011;6131;56.420;15.548;2023-04-24T07:15:19;10.57;;;9.40;;
12135;SDS011;6131;56.420;15.548;2023-04-24T07:17:45;12.10;;;9.40;;
12135;SDS011;6131;56.420;15.548;2023-04-24T07:20:11;10.13;;;8.67;;
12135;SDS011;6131;56.420;15.548;2023-04-24T07:22:39;10.57;;;8.70;;
12135;SDS011;6131;56.420;15.548;2023-04-24T07:25:05;9.57;;;8.57;;
12135;SDS011;6131;56.420;15.548;2023-04-24T07:27:31;8.97;;;8.07;;
12135;SDS011;6131;56.420;15.548;2023-04-24T07:29:57;10.97;;;9.60;;
12135;SDS011;6131;56.420;15.548;2023-04-24T07:32:23;10.57;;;8.83;;
12135;SDS011;6131;56.420;15.548;2023-04-24T07:34:50;10.53;;;9.40;;
12135;SDS011;6131;56.420;15.548;2023-04-24T07:37:16;9.67;;;8.60;;
12135;SDS011;6131;56.420;15.548;2023-04-24T07:39:42;10.63;;;7.80;;
12135;SDS011;6131;56.420;15.548;2023-04-24T07:42:08;9.00;;;8.10;;
12135;SDS011;6131;56.420;15.548;2023-04-24T07:44:34;8.27;;;7.40;;
12135;SDS011;6131;56.420;15.548;2023-04-24T07:47:01;7.97;;;7.17;;
12135;SDS011;6131;56.420;15.548;2023-04-24T07:49:27;7.77;;;6.83;;
12135;SDS011;6131;56.420;15.548;2023-04-24T07:51:53;7.60;;;6.70;;
12135;SDS011;6131;56.420;15.548;2023-04-24T07:54:19;9.20;;;7.33;;
12135;SDS011;6131;56.420;15.548;2023-04-24T07:56:45;8.83;;;7.10;;
12135;SDS011;6131;56.420;15.548;2023-04-24T07:59:12;7.20;;;6.43;;
12135;SDS011;6131;56.420;15.548;2023-04-24T08:01:38;7.20;;;6.50;;
12135;SDS011;6131;56.420;15.548;2023-04-24T08:04:04;7.23;;;6.50;;
12135;SDS011;6131;56.420;15.548;2023-04-24T08:06:30;7.97;;;6.00;;
12135;SDS011;6131;56.420;15.548;2023-04-24T08:08:56;9.80;;;6.13;;
12135;SDS011;6131;56.420;15.548;2023-04-24T08:11:23;6.03;;;5.43;;
12135;SDS011;6131;56.420;15.548;2023-04-24T08:13:49;6.37;;;5.77;;
12135;SDS011;6131;56.420;15.548;2023-04-24T08:16:15;7.00;;;5.60;;
12135;SDS011;6131;56.420;15.548;2023-04-24T08:18:41;7.27;;;5.53;;
12135;SDS011;6131;56.420;15.548;2023-04-24T08:21:07;5.50;;;5.00;;
12135;SDS011;6131;56.420;15.548;2023-04-24T08:23:33;6.40;;;5.33;;
12135;SDS011;6131;56.420;15.548;2023-04-24T08:25:59;7.37;;;5.70;;
12135;SDS011;6131;56.420;15.548;2023-04-24T08:28:25;6.30;;;5.70;;
12135;SDS011;6131;56.420;15.548;2023-04-24T08:30:51;6.20;;;5.23;;
12135;SDS011;6131;56.420;15.548;2023-04-24T08:33:20;6.33;;;5.40;;
12135;SDS011;6131;56.420;15.548;2023-04-24T08:35:46;6.03;;;5.03;;
12135;SDS011;6131;56.420;15.548;2023-04-24T08:38:12;7.43;;;5.30;;
12135;SDS011;6131;56.420;15.548;2023-04-24T08:40:38;5.57;;;5.00;;
12135;SDS011;6131;56.420;15.548;2023-04-24T08:43:04;5.53;;;4.77;;
12135;SDS011;6131;56.420;15.548;2023-04-24T08:45:30;5.73;;;5.10;;
12135;SDS011;6131;56.420;15.548;2023-04-24T08:47:58;5.63;;;5.13;;
12135;SDS011;6131;56.420;15.548;2023-04-24T08:50:25;5.93;;;5.00;;
12135;SDS011;6131;56.420;15.548;2023-04-24T08:52:51;5.10;;;4.60;;
12135;SDS011;6131;56.420;15.548;2023-04-24T08:55:19;6.10;;;5.17;;
12135;SDS011;6131;56.420;15.548;2023-04-24T08:57:45;6.43;;;5.17;;
12135;SDS011;6131;56.420;15.548;2023-04-24T09:00:15;6.43;;;5.33;;
12135;SDS011;6131;56.420;15.548;2023-04-24T09:02:42;5.47;;;4.90;;
12135;SDS011;6131;56.420;15.548;2023-04-24T09:05:08;5.20;;;4.70;;
12135;SDS011;6131;56.420;15.548;2023-04-24T09:07:35;5.53;;;4.73;;
12135;SDS011;6131;56.420;15.548;2023-04-24T09:10:03;6.03;;;4.70;;
12135;SDS011;6131;56.420;15.548;2023-04-24T09:12:30;5.57;;;4.53;;
12135;SDS011;6131;56.420;15.548;2023-04-24T09:14:56;6.43;;;5.07;;
12135;SDS011;6131;56.420;15.548;2023-04-24T09:17:22;5.47;;;4.90;;
12135;SDS011;6131;56.420;15.548;2023-04-24T09:19:51;5.60;;;5.10;;
12135;SDS011;6131;56.420;15.548;2023-04-24T09:22:17;5.10;;;4.60;;
12135;SDS011;6131;56.420;15.548;2023-04-24T09:24:44;5.23;;;4.60;;
12135;SDS011;6131;56.420;15.548;2023-04-24T09:27:11;5.63;;;5.13;;
12135;SDS011;6131;56.420;15.548;2023-04-24T09:29:37;5.13;;;4.57;;
12135;SDS011;6131;56.420;15.548;2023-04-24T09:32:20;6.03;;;4.73;;
12135;SDS011;6131;56.420;15.548;2023-04-24T09:35:04;4.37;;;3.97;;
12135;SDS011;6131;56.420;15.548;2023-04-24T09:37:34;5.37;;;4.80;;
12135;SDS011;6131;56.420;15.548;2023-04-24T09:40:34;5.10;;;4.60;;
12135;SDS011;6131;56.420;15.548;2023-04-24T09:42:55;5.20;;;4.70;;
12135;SDS011;6131;56.420;15.548;2023-04-24T09:45:27;4.60;;;4.13;;
12135;SDS011;6131;56.420;15.548;2023-04-24T09:47:53;5.20;;;4.60;;
12135;SDS011;6131;56.420;15.548;2023-04-24T09:50:20;5.40;;;4.90;;
12135;SDS011;6131;56.420;15.548;2023-04-24T09:52:55;4.00;;;3.63;;
12135;SDS011;6131;56.420;15.548;2023-04-24T09:55:21;7.50;;;4.30;;
12135;SDS011;6131;56.420;15.548;2023-04-24T09:57:51;4.57;;;4.07;;
12135;SDS011;6131;56.420;15.548;2023-04-24T10:00:18;5.33;;;4.57;;
12135;SDS011;6131;56.420;15.548;2023-04-24T10:02:44;4.90;;;4.40;;
12135;SDS011;6131;56.420;15.548;2023-04-24T10:05:11;5.00;;;4.50;;
12135;SDS011;6131;56.420;15.548;2023-04-24T10:07:37;4.23;;;3.83;;
12135;SDS011;6131;56.420;15.548;2023-04-24T10:10:03;4.10;;;3.70;;
12135;SDS011;6131;56.420;15.548;2023-04-24T10:12:30;4.27;;;3.87;;
12135;SDS011;6131;56.420;15.548;2023-04-24T10:14:56;4.20;;;3.53;;
12135;SDS011;6131;56.420;15.548;2023-04-24T10:17:22;4.63;;;4.20;;
12135;SDS011;6131;56.420;15.548;2023-04-24T10:19:49;5.33;;;3.57;;
12135;SDS011;6131;56.420;15.548;2023-04-24T10:22:15;5.03;;;3.80;;
12135;SDS011;6131;56.420;15.548;2023-04-24T10:24:43;5.37;;;4.37;;
12135;SDS011;6131;56.420;15.548;2023-04-24T10:27:09;4.30;;;3.60;;
12135;SDS011;6131;56.420;15.548;2023-04-24T10:29:35;4.33;;;3.93;;
12135;SDS011;6131;56.420;15.548;2023-04-24T10:32:03;4.70;;;4.00;;
12135;SDS011;6131;56.420;15.548;2023-04-24T10:34:32;4.17;;;3.77;;
12135;SDS011;6131;56.420;15.548;2023-04-24T10:36:58;4.47;;;3.93;;
12135;SDS011;6131;56.420;15.548;2023-04-24T10:39:25;3.93;;;3.57;;
12135;SDS011;6131;56.420;15.548;2023-04-24T10:41:51;4.73;;;3.40;;
12135;SDS011;6131;56.420;15.548;2023-04-24T10:44:17;4.40;;;3.13;;
12135;SDS011;6131;56.420;15.548;2023-04-24T10:46:44;2.90;;;2.57;;
12135;SDS011;6131;56.420;15.548;2023-04-24T10:49:10;4.07;;;2.90;;
12135;SDS011;6131;56.420;15.548;2023-04-24T10:52:10;2.90;;;2.60;;
12135;SDS011;6131;56.420;15.548;2023-04-24T10:54:44;3.00;;;2.70;;
12135;SDS011;6131;56.420;15.548;2023-04-24T10:59:47;2.97;;;2.47;;
12135;SDS011;6131;56.420;15.548;2023-04-24T11:02:14;2.40;;;2.20;;
12135;SDS011;6131;56.420;15.548;2023-04-24T11:04:40;2.53;;;2.03;;
12135;SDS011;6131;56.420;15.548;2023-04-24T11:07:08;2.67;;;2.37;;
12135;SDS011;6131;56.420;15.548;2023-04-24T11:09:35;2.50;;;2.20;;
12135;SDS011;6131;56.420;15.548;2023-04-24T11:12:06;4.03;;;2.27;;
12135;SDS011;6131;56.420;15.548;2023-04-24T11:20:09;2.83;;;2.13;;
12135;SDS011;6131;56.420;15.548;2023-04-24T11:22:37;2.73;;;1.93;;
12135;SDS011;6131;56.420;15.548;2023-04-24T11:25:05;1.63;;;1.47;;
12135;SDS011;6131;56.420;15.548;2023-04-24T11:27:34;2.20;;;1.57;;
12135;SDS011;6131;56.420;15.548;2023-04-24T11:30:04;3.03;;;1.90;;
12135;SDS011;6131;56.420;15.548;2023-04-24T11:32:33;1.77;;;1.63;;
12135;SDS011;6131;56.420;15.548;2023-04-24T11:37:36;2.20;;;1.60;;
12135;SDS011;6131;56.420;15.548;2023-04-24T11:40:02;2.47;;;1.60;;
12135;SDS011;6131;56.420;15.548;2023-04-24T11:42:33;1.73;;;1.40;;
12135;SDS011;6131;56.420;15.548;2023-04-24T11:44:59;1.50;;;1.40;;
12135;SDS011;6131;56.420;15.548;2023-04-24T11:47:32;2.10;;;1.60;;
12135;SDS011;6131;56.420;15.548;2023-04-24T11:49:59;2.07;;;1.87;;
12135;SDS011;6131;56.420;15.548;2023-04-24T11:52:25;2.10;;;1.90;;
12135;SDS011;6131;56.420;15.548;2023-04-24T11:54:52;2.87;;;1.80;;
12135;SDS011;6131;56.420;15.548;2023-04-24T11:57:24;1.53;;;1.43;;
12135;SDS011;6131;56.420;15.548;2023-04-24T11:59:53;1.50;;;1.40;;
12135;SDS011;6131;56.420;15.548;2023-04-24T12:04:47;1.47;;;1.37;;
12135;SDS011;6131;56.420;15.548;2023-04-24T12:07:13;1.80;;;1.70;;
12135;SDS011;6131;56.420;15.548;2023-04-24T12:09:40;2.03;;;1.87;;
12135;SDS011;6131;56.420;15.548;2023-04-24T12:12:06;1.60;;;1.50;;
12135;SDS011;6131;56.420;15.548;2023-04-24T12:14:33;2.10;;;1.90;;
12135;SDS011;6131;56.420;15.548;2023-04-24T12:16:59;2.30;;;2.10;;
12135;SDS011;6131;56.420;15.548;2023-04-24T12:19:25;2.30;;;1.80;;
12135;SDS011;6131;56.420;15.548;2023-04-24T12:22:00;1.90;;;1.70;;
12135;SDS011;6131;56.420;15.548;2023-04-24T12:24:27;2.07;;;1.83;;
12135;SDS011;6131;56.420;15.548;2023-04-24T12:26:53;2.17;;;1.80;;
12135;SDS011;6131;56.420;15.548;2023-04-24T12:29:20;2.43;;;1.90;;
12135;SDS011;6131;56.420;15.548;2023-04-24T12:31:46;2.00;;;1.67;;
12135;SDS011;6131;56.420;15.548;2023-04-24T12:34:22;2.20;;;1.97;;
12135;SDS011;6131;56.420;15.548;2023-04-24T12:36:48;1.60;;;1.50;;
12135;SDS011;6131;56.420;15.548;2023-04-24T12:39:15;1.90;;;1.70;;
12135;SDS011;6131;56.420;15.548;2023-04-24T12:41:57;2.40;;;1.33;;
12135;SDS011;6131;56.420;15.548;2023-04-24T12:44:31;2.53;;;1.60;;
12135;SDS011;6131;56.420;15.548;2023-04-24T12:46:59;1.97;;;1.70;;
12135;SDS011;6131;56.420;15.548;2023-04-24T12:49:25;1.60;;;1.50;;
12135;SDS011;6131;56.420;15.548;2023-04-24T12:51:51;1.63;;;1.53;;
12135;SDS011;6131;56.420;15.548;2023-04-24T12:54:17;3.47;;;2.10;;
12135;SDS011;6131;56.420;15.548;2023-04-24T12:56:43;1.80;;;1.70;;
12135;SDS011;6131;56.420;15.548;2023-04-24T12:59:09;2.20;;;2.00;;
12135;SDS011;6131;56.420;15.548;2023-04-24T13:01:35;2.10;;;1.90;;
12135;SDS011;6131;56.420;15.548;2023-04-24T13:04:01;2.47;;;2.10;;
12135;SDS011;6131;56.420;15.548;2023-04-24T13:06:27;2.60;;;2.33;;
12135;SDS011;6131;56.420;15.548;2023-04-24T13:08:53;2.77;;;2.50;;
12135;SDS011;6131;56.420;15.548;2023-04-24T13:11:20;2.70;;;2.50;;
12135;SDS011;6131;56.420;15.548;2023-04-24T13:13:47;3.37;;;3.00;;
12135;SDS011;6131;56.420;15.548;2023-04-24T13:16:13;3.60;;;3.30;;
12135;SDS011;6131;56.420;15.548;2023-04-24T13:18:39;6.13;;;3.17;;
12135;SDS011;6131;56.420;15.548;2023-04-24T13:21:05;4.23;;;3.83;;
12135;SDS011;6131;56.420;15.548;2023-04-24T13:23:31;4.50;;;4.10;;
12135;SDS011;6131;56.420;15.548;2023-04-24T13:25:57;4.67;;;4.00;;
12135;SDS011;6131;56.420;15.548;2023-04-24T13:28:24;5.33;;;4.43;;
12135;SDS011;6131;56.420;15.548;2023-04-24T13:30:50;4.87;;;4.37;;
12135;SDS011;6131;56.420;15.548;2023-04-24T13:33:16;5.50;;;4.47;;
12135;SDS011;6131;56.420;15.548;2023-04-24T13:35:42;5.50;;;4.60;;
12135;SDS011;6131;56.420;15.548;2023-04-24T13:38:08;5.83;;;4.83;;
12135;SDS011;6131;56.420;15.548;2023-04-24T13:40:34;5.53;;;4.50;;
12135;SDS011;6131;56.420;15.548;2023-04-24T13:43:01;5.70;;;4.87;;
12135;SDS011;6131;56.420;15.548;2023-04-24T13:45:27;6.17;;;4.90;;
12135;SDS011;6131;56.420;15.548;2023-04-24T13:47:53;6.70;;;5.53;;
12135;SDS011;6131;56.420;15.548;2023-04-24T13:50:19;6.40;;;5.50;;
12135;SDS011;6131;56.420;15.548;2023-04-24T13:52:45;5.80;;;5.20;;
12135;SDS011;6131;56.420;15.548;2023-04-24T13:55:11;6.40;;;5.80;;
12135;SDS011;6131;56.420;15.548;2023-04-24T13:57:37;6.33;;;5.33;;
12135;SDS011;6131;56.420;15.548;2023-04-24T14:00:03;8.57;;;6.50;;
12135;SDS011;6131;56.420;15.548;2023-04-24T14:02:31;7.70;;;6.07;;
12135;SDS011;6131;56.420;15.548;2023-04-24T14:04:57;6.60;;;5.43;;
12135;SDS011;6131;56.420;15.548;2023-04-24T14:07:23;8.23;;;6.30;;
12135;SDS011;6131;56.420;15.548;2023-04-24T14:09:49;7.93;;;6.07;;
12135;SDS011;6131;56.420;15.548;2023-04-24T14:12:16;8.23;;;5.97;;
12135;SDS011;6131;56.420;15.548;2023-04-24T14:14:44;8.17;;;6.50;;
12135;SDS011;6131;56.420;15.548;2023-04-24T14:17:10;7.73;;;6.60;;
12135;SDS011;6131;56.420;15.548;2023-04-24T14:19:36;9.97;;;7.17;;
12135;SDS011;6131;56.420;15.548;2023-04-24T14:22:02;9.10;;;6.60;;
12135;SDS011;6131;56.420;15.548;2023-04-24T14:24:28;8.17;;;6.07;;
12135;SDS011;6131;56.420;15.548;2023-04-24T14:26:54;8.27;;;6.40;;
12135;SDS011;6131;56.420;15.548;2023-04-24T14:29:21;8.93;;;6.60;;
12135;SDS011;6131;56.420;15.548;2023-04-24T14:31:47;8.80;;;6.10;;
12135;SDS011;6131;56.420;15.548;2023-04-24T14:34:13;8.53;;;5.93;;
12135;SDS011;6131;56.420;15.548;2023-04-24T14:36:40;8.17;;;5.77;;
12135;SDS011;6131;56.420;15.548;2023-04-24T14:39:06;8.10;;;5.63;;
12135;SDS011;6131;56.420;15.548;2023-04-24T14:41:32;8.13;;;5.70;;
12135;SDS011;6131;56.420;15.548;2023-04-24T14:44:01;7.63;;;6.00;;
12135;SDS011;6131;56.420;15.548;2023-04-24T14:46:28;7.23;;;5.53;;
12135;SDS011;6131;56.420;15.548;2023-04-24T14:48:55;8.30;;;5.47;;
12135;SDS011;6131;56.420;15.548;2023-04-24T14:51:21;9.43;;;5.67;;
12135;SDS011;6131;56.420;15.548;2023-04-24T14:53:47;6.53;;;5.20;;